Time;durP1;ratioP1;P1;durP2;ratioP2;P2;SDS_P1;SDS_P2;PMS_P1;PMS_P2;Temp;Humidity;BMP_temperature;BMP_pressure;BME280_temperature;BME280_humidity;BME280_pressure;Samples;Min_cycle;Max_cycle;Signal;HPM_P1;HPM_P2
2022/07/09 00:00:54;;;;;;;12.43;3.60;;;14.00;99.90;;;12.97;100.00;101954.72;5000974;28;21434;-76
2022/07/09 00:03:20;;;;;;;21.20;4.10;;;14.10;99.90;;;12.95;100.00;101952.13;5023022;28;20033;-76
2022/07/09 00:05:46;;;;;;;9.85;3.70;;;14.10;99.90;;;12.95;100.00;101949.47;4986497;28;20032;-76
2022/07/09 00:08:12;;;;;;;19.08;4.50;;;14.00;99.90;;;12.90;100.00;101957.59;4994201;28;20033;-76
2022/07/09 00:10:38;;;;;;;17.25;3.55;;;14.00;99.90;;;12.86;100.00;101958.63;4993283;28;20585;-77
2022/07/09 00:13:06;;;;;;;13.55;3.63;;;14.00;99.90;;;12.81;100.00;101950.00;4992252;28;20119;-77
2022/07/09 00:15:32;;;;;;;19.52;4.10;;;13.90;99.90;;;12.82;100.00;101945.56;4992550;28;20049;-76
2022/07/09 00:17:58;;;;;;;15.80;4.03;;;13.90;99.90;;;12.85;100.00;101956.03;4993514;28;20088;-77
2022/07/09 00:20:23;;;;;;;;;;;13.90;99.90;;;12.78;100.00;101949.25;4985314;28;20021;-76
2022/07/09 00:22:49;;;;;;;16.40;4.20;;;13.90;99.90;;;12.81;100.00;101955.28;5012176;28;19944;-76
2022/07/09 00:25:15;;;;;;;12.18;4.13;;;13.90;99.90;;;12.85;100.00;101946.34;4999343;28;20041;-76
2022/07/09 00:27:41;;;;;;;14.25;4.13;;;13.90;99.90;;;12.87;100.00;101954.19;5005822;28;20501;-76
2022/07/09 00:30:07;;;;;;;13.73;4.00;;;13.90;99.90;;;12.86;100.00;101950.69;4994525;28;20022;-76
2022/07/09 00:32:33;;;;;;;16.73;4.35;;;13.90;99.90;;;12.79;100.00;101943.91;4984911;28;20042;-76
2022/07/09 00:34:59;;;;;;;15.20;4.18;;;13.90;99.90;;;12.77;100.00;101943.09;5001947;28;20029;-76
2022/07/09 00:37:25;;;;;;;14.93;3.95;;;13.90;99.90;;;12.73;100.00;101941.50;5001675;28;20401;-76
2022/07/09 00:39:51;;;;;;;20.13;4.50;;;13.80;99.90;;;12.74;100.00;101940.56;5001819;28;20030;-76
2022/07/09 00:42:17;;;;;;;21.52;5.07;;;13.80;99.90;;;12.70;100.00;101936.31;5008633;28;20025;-76
2022/07/09 00:44:43;;;;;;;25.52;4.90;;;13.80;99.90;;;12.68;100.00;101932.88;5004659;28;20045;-76
2022/07/09 00:47:09;;;;;;;15.18;4.13;;;13.80;99.90;;;12.66;100.00;101937.34;5005883;28;20084;-76
2022/07/09 00:49:40;;;;;;;21.50;4.70;;;13.70;99.90;;;12.63;100.00;101926.88;5000625;28;20030;-76
2022/07/09 00:52:09;;;;;;;23.80;4.47;;;13.70;99.90;;;12.56;100.00;101928.88;4999316;28;20026;-76
2022/07/09 00:54:36;;;;;;;19.90;4.38;;;13.60;99.90;;;12.51;100.00;101921.13;4993792;28;20725;-76
2022/07/09 00:57:06;;;;;;;27.52;5.03;;;13.60;99.90;;;12.47;100.00;101923.94;4990003;28;20054;-76
2022/07/09 00:59:33;;;;;;;16.20;4.53;;;13.50;99.90;;;12.44;100.00;101916.09;4996016;28;21052;-76
2022/07/09 01:02:01;;;;;;;20.15;4.82;;;13.50;99.90;;;12.37;100.00;101912.81;5002321;28;20413;-76
2022/07/09 01:04:27;;;;;;;18.23;5.05;;;13.50;99.90;;;12.36;100.00;101911.09;5004229;28;20651;-76
2022/07/09 01:06:53;;;;;;;11.13;4.18;;;13.40;99.90;;;12.28;100.00;101907.84;5006549;28;20026;-76
2022/07/09 01:09:19;;;;;;;19.13;5.05;;;13.40;99.90;;;12.25;100.00;101918.53;5000585;28;20033;-76
2022/07/09 01:11:47;;;;;;;16.67;4.40;;;13.30;99.90;;;12.21;100.00;101914.28;5002397;28;20048;-76
2022/07/09 01:14:13;;;;;;;22.88;5.45;;;13.30;99.90;;;12.19;100.00;101918.75;5019009;28;20021;-76
2022/07/09 01:16:39;;;;;;;21.00;3.95;;;13.30;99.90;;;12.12;100.00;101912.81;4992110;28;20106;-76
2022/07/09 01:19:06;;;;;;;18.45;4.18;;;13.30;99.90;;;12.04;100.00;101905.16;4993242;28;20033;-76
2022/07/09 01:21:31;;;;;;;14.43;3.53;;;13.20;99.90;;;12.03;100.00;101908.72;4998090;28;20026;-77
2022/07/09 01:23:57;;;;;;;23.25;4.10;;;13.20;99.90;;;12.07;100.00;101907.69;5001601;28;20027;-76
2022/07/09 01:26:24;;;;;;;18.75;3.97;;;13.30;99.90;;;12.11;100.00;101904.00;5000712;28;20482;-77
2022/07/09 01:28:51;;;;;;;20.73;4.55;;;13.30;99.90;;;12.18;100.00;101903.81;4976148;28;20033;-76
2022/07/09 01:31:17;;;;;;;18.27;3.60;;;13.40;99.90;;;12.21;100.00;101898.44;5001236;28;20029;-76
2022/07/09 01:33:44;;;;;;;20.95;3.50;;;13.40;99.90;;;12.27;100.00;101898.22;4993711;28;20029;-77
2022/07/09 01:36:10;;;;;;;24.05;3.72;;;13.40;99.90;;;12.32;100.00;101894.50;4998674;28;20017;-76
2022/07/09 01:38:36;;;;;;;16.23;3.67;;;13.50;99.90;;;12.35;100.00;101896.16;4994283;28;20049;-77
2022/07/09 01:41:02;;;;;;;12.45;2.80;;;13.50;99.90;;;12.35;100.00;101898.78;5002086;28;20029;-77
2022/07/09 01:43:27;;;;;;;17.75;3.92;;;13.50;99.90;;;12.41;100.00;101893.28;4990509;28;20030;-77
2022/07/09 01:45:53;;;;;;;12.95;2.90;;;13.60;99.90;;;12.44;100.00;101895.84;4999989;28;20049;-76
2022/07/09 01:48:22;;;;;;;23.80;4.35;;;13.60;99.90;;;12.49;100.00;101893.88;4975346;28;20026;-76
2022/07/09 01:50:48;;;;;;;15.25;3.42;;;13.70;99.90;;;12.51;100.00;101884.13;4999982;28;20026;-77
2022/07/09 01:53:14;;;;;;;16.95;3.45;;;13.70;99.90;;;12.55;100.00;101889.28;4967122;28;20053;-77
2022/07/09 01:55:40;;;;;;;12.40;3.20;;;13.60;99.90;;;12.48;100.00;101889.53;4991383;28;20029;-76
2022/07/09 01:58:06;;;;;;;20.90;3.85;;;13.60;99.90;;;12.47;100.00;101893.09;4999957;28;20505;-76
2022/07/09 02:00:32;;;;;;;16.65;3.78;;;13.60;99.90;;;12.45;100.00;101889.63;4999134;28;20022;-76
2022/07/09 02:02:58;;;;;;;15.98;3.28;;;13.60;99.90;;;12.47;100.00;101882.50;4989325;28;20048;-76
2022/07/09 02:05:24;;;;;;;18.35;3.42;;;13.60;99.90;;;12.47;100.00;101879.03;4998773;28;20030;-76
2022/07/09 02:07:49;;;;;;;13.55;3.33;;;13.60;99.90;;;12.48;100.00;101880.72;4991876;28;20030;-76
2022/07/09 02:10:16;;;;;;;18.83;3.60;;;13.60;99.90;;;12.49;100.00;101878.03;4997343;28;20021;-77
2022/07/09 02:12:42;;;;;;;12.68;2.88;;;13.70;99.90;;;12.52;100.00;101875.28;5001294;28;20036;-76
2022/07/09 02:15:10;;;;;;;12.30;3.50;;;13.60;99.90;;;12.51;100.00;101884.13;4996699;28;20127;-77
2022/07/09 02:17:36;;;;;;;14.77;3.67;;;13.70;99.90;;;12.52;100.00;101874.41;5010258;28;20066;-76
2022/07/09 02:20:03;;;;;;;11.77;2.80;;;13.70;99.90;;;12.55;100.00;101870.78;4990756;28;20105;-77
2022/07/09 02:22:29;;;;;;;15.40;3.00;;;13.70;99.90;;;12.57;100.00;101876.88;4982910;28;20036;-76
2022/07/09 02:24:55;;;;;;;18.73;3.67;;;13.70;99.90;;;12.58;100.00;101862.78;4991520;28;20081;-76
2022/07/09 02:27:22;;;;;;;15.15;3.53;;;13.70;99.90;;;12.60;100.00;101872.38;5004563;28;20022;-76
2022/07/09 02:29:48;;;;;;;12.50;2.92;;;13.70;99.90;;;12.59;100.00;101875.94;4997012;28;20032;-77
2022/07/09 02:32:13;;;;;;;14.85;2.85;;;13.80;99.90;;;12.63;100.00;101874.03;4996161;28;20017;-77
2022/07/09 02:34:39;;;;;;;;;;;13.80;99.90;;;12.60;100.00;101874.16;5016129;28;20025;-77
2022/07/09 02:37:06;;;;;;;18.27;3.33;;;13.80;99.90;;;12.60;100.00;101867.09;4990626;28;19921;-76
2022/07/09 02:39:32;;;;;;;9.52;2.65;;;13.80;99.90;;;12.63;100.00;101874.03;4976038;28;20088;-76
2022/07/09 02:41:58;;;;;;;9.13;3.00;;;13.80;99.90;;;12.65;100.00;101872.19;4975572;28;20429;-76
2022/07/09 02:44:24;;;;;;;17.13;3.28;;;13.80;99.90;;;12.68;100.00;101869.44;5006327;28;20400;-76
2022/07/09 02:46:50;;;;;;;12.70;2.78;;;13.80;99.90;;;12.66;100.00;101872.16;4988256;28;20025;-76
2022/07/09 02:49:16;;;;;;;13.50;2.92;;;13.80;99.90;;;12.70;100.00;101870.25;4999434;28;20544;-76
2022/07/09 02:51:42;;;;;;;10.93;2.75;;;13.60;99.90;;;12.64;100.00;101875.75;4990423;28;20036;-76
2022/07/09 02:54:08;;;;;;;15.68;3.20;;;13.80;99.90;;;12.63;100.00;101868.75;4997289;28;20986;-76
2022/07/09 02:56:34;;;;;;;13.20;2.95;;;13.80;99.90;;;12.66;100.00;101876.56;4982877;28;20045;-76
2022/07/09 02:59:02;;;;;;;12.07;3.15;;;13.80;99.90;;;12.65;100.00;101873.03;4986691;28;20045;-76
2022/07/09 03:01:28;;;;;;;14.18;3.28;;;13.80;99.90;;;12.67;100.00;101876.50;4993121;28;20705;-76
2022/07/09 03:03:54;;;;;;;19.83;3.40;;;13.80;99.90;;;12.71;100.00;101874.63;5003998;28;20038;-76
2022/07/09 03:06:20;;;;;;;16.20;3.20;;;13.80;99.90;;;12.78;100.00;101872.59;4997878;28;20428;-76
2022/07/09 03:08:46;;;;;;;11.48;2.75;;;13.80;99.90;;;12.80;100.00;101868.97;4997048;28;20101;-76
2022/07/09 03:11:11;;;;;;;13.77;2.97;;;13.90;99.90;;;12.84;100.00;101875.00;5000809;28;20682;-76
2022/07/09 03:13:39;;;;;;;16.48;2.67;;;13.90;99.90;;;12.91;100.00;101868.56;4988954;28;20018;-76
2022/07/09 03:16:06;;;;;;;12.82;3.60;;;13.90;99.90;;;12.95;100.00;101870.19;4983416;28;20025;-76
2022/07/09 03:18:33;;;;;;;13.05;2.88;;;14.00;99.90;;;13.03;100.00;101872.53;4992506;28;20053;-76
2022/07/09 03:20:59;;;;;;;16.58;3.40;;;14.10;99.90;;;13.10;100.00;101869.56;4997586;28;20449;-76
2022/07/09 03:23:25;;;;;;;15.77;3.00;;;14.10;99.90;;;13.17;100.00;101856.97;4985730;28;20101;-77
2022/07/09 03:25:51;;;;;;;16.98;3.67;;;14.20;99.90;;;13.24;100.00;101857.59;4997578;28;20030;-76
2022/07/09 03:28:17;;;;;;;13.35;3.42;;;14.20;99.90;;;13.29;100.00;101850.38;4999431;28;20025;-76
2022/07/09 03:30:45;;;;;;;14.65;2.80;;;14.30;99.90;;;13.33;100.00;101852.84;4998638;28;20136;-76
2022/07/09 03:33:11;;;;;;;12.05;2.88;;;14.30;99.90;;;13.36;100.00;101849.22;4989439;28;20029;-76
2022/07/09 03:35:38;;;;;;;11.27;2.83;;;14.30;99.90;;;13.42;100.00;101851.59;4989449;28;20048;-77
2022/07/09 03:38:04;;;;;;;14.45;2.72;;;14.40;99.90;;;13.44;100.00;101855.06;4982088;28;20033;-77
2022/07/09 03:40:30;;;;;;;11.52;3.15;;;14.50;99.90;;;13.48;100.00;101846.06;4983571;28;20037;-76
2022/07/09 03:42:56;;;;;;;9.63;2.72;;;14.50;99.90;;;13.55;100.00;101838.75;4984648;28;20550;-76
2022/07/09 03:45:22;;;;;;;10.50;2.60;;;14.50;99.90;;;13.61;100.00;101849.06;4992372;28;1061087;-76
2022/07/09 03:47:48;;;;;;;9.63;2.65;;;14.60;99.90;;;13.66;100.00;101841.78;4993686;28;20029;-76
2022/07/09 03:50:14;;;;;;;15.45;3.22;;;14.60;99.90;;;13.72;100.00;101836.25;5008273;28;20119;-76
2022/07/09 03:52:40;;;;;;;10.18;2.53;;;14.70;99.90;;;13.75;100.00;101841.41;4994720;28;20038;-76
2022/07/09 03:55:06;;;;;;;10.63;2.30;;;14.70;99.90;;;13.78;100.00;101836.91;5000905;28;20060;-76
2022/07/09 03:57:32;;;;;;;11.88;2.83;;;14.70;99.90;;;13.80;100.00;101835.94;4988962;28;20061;-76
2022/07/09 03:59:58;;;;;;;18.70;3.00;;;14.80;99.90;;;13.87;100.00;101825.94;5001629;28;20182;-76
2022/07/09 04:02:24;;;;;;;15.00;2.83;;;14.80;99.90;;;13.92;100.00;101823.94;4991694;28;20030;-76
2022/07/09 04:04:50;;;;;;;;;;;14.80;99.90;;;13.88;100.00;101823.22;5006281;28;20124;-76
2022/07/09 04:07:15;;;;;;;12.20;2.60;;;14.90;99.90;;;13.89;100.00;101837.34;5001050;28;19983;-76
2022/07/09 04:09:41;;;;;;;12.60;2.60;;;14.90;99.90;;;13.92;100.00;101834.53;5002849;28;20482;-76
2022/07/09 04:12:08;;;;;;;12.02;2.30;;;14.90;99.90;;;13.96;100.00;101836.13;5001730;28;20060;-76
2022/07/09 04:14:34;;;;;;;10.90;2.47;;;15.00;99.90;;;14.02;100.00;101833.22;5008420;28;20053;-76
2022/07/09 04:17:00;;;;;;;10.75;2.35;;;15.00;99.90;;;14.07;100.00;101833.88;5015381;28;20022;-76
2022/07/09 04:19:26;;;;;;;8.40;2.20;;;15.10;99.90;;;14.14;100.00;101830.00;5009295;28;20079;-77
2022/07/09 04:21:54;;;;;;;11.00;2.20;;;15.10;99.90;;;14.20;100.00;101834.19;4978426;28;20521;-76
2022/07/09 04:24:19;;;;;;;8.15;2.17;;;15.20;99.90;;;14.27;100.00;101826.84;4991318;28;20033;-76
2022/07/09 04:26:45;;;;;;;7.18;2.50;;;15.30;99.90;;;14.36;100.00;101829.06;5018786;28;20065;-76
2022/07/09 04:29:11;;;;;;;7.68;2.13;;;15.30;99.90;;;14.42;100.00;101834.09;4994037;28;20113;-76
2022/07/09 04:31:37;;;;;;;7.28;2.30;;;15.40;99.90;;;14.55;100.00;101831.78;4991782;28;20017;-76
2022/07/09 04:34:02;;;;;;;8.38;2.05;;;15.50;99.90;;;14.63;100.00;101818.19;4996592;28;20502;-76
2022/07/09 04:36:29;;;;;;;11.02;2.20;;;15.50;99.90;;;14.69;100.00;101818.75;5010635;28;20022;-76
2022/07/09 04:38:55;;;;;;;13.80;2.35;;;15.60;99.90;;;14.71;100.00;101832.81;5002927;28;20041;-76
2022/07/09 04:41:21;;;;;;;10.68;1.77;;;15.60;99.90;;;14.72;100.00;101820.41;5001296;28;20014;-76
2022/07/09 04:43:47;;;;;;;7.40;2.00;;;15.60;99.90;;;14.74;100.00;101818.53;4985302;28;20117;-76
2022/07/09 04:46:13;;;;;;;;;;;15.70;99.90;;;14.73;100.00;101814.19;4997325;28;20037;-76
2022/07/09 04:48:39;;;;;;;6.45;1.95;;;15.60;99.90;;;14.76;100.00;101821.97;5005301;28;19916;-76
2022/07/09 04:51:05;;;;;;;8.68;1.75;;;15.70;99.90;;;14.83;100.00;101827.84;4991541;28;22147;-76
2022/07/09 04:53:31;;;;;;;9.90;1.60;;;15.70;99.90;;;14.86;100.00;101819.75;4986044;28;20065;-76
2022/07/09 04:55:57;;;;;;;8.02;1.55;;;15.80;99.90;;;14.91;100.00;101821.25;4990909;28;20049;-76
2022/07/09 04:58:23;;;;;;;10.60;2.00;;;15.80;99.90;;;14.97;100.00;101817.47;4997729;28;20128;-76
2022/07/09 05:00:49;;;;;;;6.10;1.52;;;15.90;99.90;;;15.05;100.00;101825.03;5009200;28;20060;-76
2022/07/09 05:03:15;;;;;;;;;;;15.90;99.90;;;15.06;100.00;101819.66;5007828;28;20497;-76
2022/07/09 05:05:40;;;;;;;6.13;1.70;;;15.90;99.90;;;15.10;100.00;101820.41;4992446;28;19961;-76
2022/07/09 05:08:06;;;;;;;;;;;16.00;99.90;;;15.12;100.00;101818.53;4999538;28;20030;-76
2022/07/09 05:10:32;;;;;;;5.32;1.60;;;16.10;99.90;;;15.17;100.00;101820.00;4999647;28;19971;-75
2022/07/09 05:12:58;;;;;;;8.27;1.60;;;16.10;99.90;;;15.27;100.00;101817.78;4973417;28;20128;-76
2022/07/09 05:15:23;;;;;;;;;;;16.10;99.90;;;15.37;100.00;101812.88;4992327;28;20022;-76
2022/07/09 05:17:49;;;;;;;5.78;1.30;;;16.20;99.90;;;15.47;99.69;101819.44;5001161;28;19917;-76
2022/07/09 05:20:15;;;;;;;;;;;16.20;99.90;;;15.58;98.95;101816.25;4994059;28;20505;-76
2022/07/09 05:22:40;;;;;;;8.00;1.40;;;16.40;99.90;;;15.66;98.65;101823.81;5003352;28;19917;-76
2022/07/09 05:25:07;;;;;;;;;;;16.40;99.90;;;15.71;97.28;101824.47;5000924;28;20041;-76
2022/07/09 05:27:40;;;;;;;6.18;1.17;;;16.50;99.90;;;15.76;97.16;101822.44;4989320;28;19909;-76
2022/07/09 05:30:09;;;;;;;8.75;1.60;;;16.60;99.90;;;15.82;96.37;101821.28;4986049;28;20068;-76
2022/07/09 05:32:34;;;;;;;6.55;1.40;;;16.60;99.90;;;15.85;96.19;101808.69;5000517;28;20640;-75
2022/07/09 05:35:00;;;;;;;6.43;1.50;;;16.70;99.90;;;15.84;96.07;101817.63;5003847;28;20121;-75
2022/07/09 05:37:26;;;;;;;;;;;16.70;99.90;;;15.84;96.32;101808.78;5003448;28;20506;-76
2022/07/09 05:39:52;;;;;;;4.25;1.40;;;16.70;99.90;;;15.83;96.48;101801.75;4992420;28;20028;-76
2022/07/09 05:42:17;;;;;;;5.53;1.50;;;16.70;99.90;;;15.85;96.43;101799.88;4995889;28;20050;-76
2022/07/09 05:44:43;;;;;;;;;;;16.70;99.90;;;15.85;96.99;101815.81;4994828;28;20076;-76
2022/07/09 05:47:09;;;;;;;10.55;1.52;;;16.70;99.90;;;15.85;97.34;101813.16;5000776;28;19905;-76
2022/07/09 05:49:34;;;;;;;;;;;16.70;99.90;;;15.90;98.00;101812.00;4985926;28;20045;-76
2022/07/09 05:52:00;;;;;;;8.95;1.65;;;16.70;99.90;;;15.97;98.11;101809.88;4987981;28;19916;-76
2022/07/09 05:54:26;;;;;;;6.70;1.80;;;16.80;99.90;;;16.04;98.13;101813.91;4984420;28;20061;-76
2022/07/09 05:56:52;;;;;;;;;;;16.80;99.90;;;16.11;97.65;101811.78;4999510;28;20068;-76
2022/07/09 05:59:17;;;;;;;6.30;1.55;;;17.00;99.90;;;16.27;97.46;101794.09;5003659;28;19932;-76
2022/07/09 06:01:43;;;;;;;8.60;1.25;;;17.10;99.90;;;16.34;96.59;101790.16;4991352;28;20033;-76
2022/07/09 06:04:12;;;;;;;7.90;1.58;;;17.20;99.90;;;16.38;96.82;101789.06;5002949;28;20038;-75
2022/07/09 06:06:38;;;;;;;10.70;1.42;;;17.20;99.90;;;16.40;97.48;101791.66;4987893;28;20555;-76
2022/07/09 06:09:03;;;;;;;18.27;2.17;;;17.20;99.90;;;16.48;98.33;101802.72;4974168;28;20045;-77
2022/07/09 06:11:29;;;;;;;9.20;2.05;;;17.30;99.90;;;16.66;97.86;101790.22;4993459;28;20140;-76
2022/07/09 06:13:58;;;;;;;;;;;17.30;99.90;;;16.78;98.18;101792.22;5000828;28;20057;-76
2022/07/09 06:16:24;;;;;;;7.25;1.92;;;17.50;99.90;;;16.81;97.52;101777.91;5003433;28;23043;-76
2022/07/09 06:18:49;;;;;;;7.75;1.80;;;17.60;99.90;;;16.85;97.19;101778.59;4979717;28;20111;-76
2022/07/09 06:21:15;;;;;;;6.60;2.00;;;17.60;99.90;;;16.87;97.19;101780.22;4971528;28;20646;-76
2022/07/09 06:23:41;;;;;;;5.05;1.98;;;17.60;99.90;;;16.88;97.50;101776.59;5003053;28;20034;-76
2022/07/09 06:26:07;;;;;;;6.85;2.00;;;17.60;99.90;;;16.90;97.78;101788.00;5013087;28;20566;-76
2022/07/09 06:28:36;;;;;;;;;;;17.60;99.90;;;16.85;98.16;101790.09;4996802;28;20041;-76
2022/07/09 06:31:01;;;;;;;6.28;1.83;;;17.60;99.90;;;16.86;98.24;101786.47;5000547;28;19917;-75
2022/07/09 06:33:27;;;;;;;7.10;2.08;;;17.70;99.90;;;16.91;98.45;101789.75;5014823;28;20042;-76
2022/07/09 06:35:53;;;;;;;;;;;17.70;99.90;;;16.87;99.70;101793.53;4991685;28;20045;-76
2022/07/09 06:38:18;;;;;;;8.68;2.38;;;17.70;99.90;;;16.90;99.32;101785.34;4998787;28;19931;-76
2022/07/09 06:40:44;;;;;;;;;;;17.70;99.90;;;16.91;99.69;101791.53;4996567;28;20036;-77
2022/07/09 06:43:11;;;;;;;4.95;1.83;;;17.70;99.90;;;16.98;99.44;101795.56;5007026;28;19912;-76
2022/07/09 06:45:37;;;;;;;5.53;1.92;;;17.80;99.90;;;17.07;99.56;101794.19;5014580;28;20096;-76
2022/07/09 06:48:03;;;;;;;6.10;2.10;;;17.90;99.90;;;17.08;100.00;101798.56;4976703;28;20691;-76
2022/07/09 06:50:29;;;;;;;7.35;2.17;;;17.90;99.90;;;17.10;99.72;101797.53;4992468;28;20068;-76
2022/07/09 06:52:55;;;;;;;10.50;2.45;;;17.90;99.90;;;17.17;99.61;101808.66;4984794;28;20025;-76
2022/07/09 06:55:21;;;;;;;9.35;2.30;;;17.90;99.90;;;17.14;99.67;101803.53;5002044;28;20799;-75
2022/07/09 06:57:47;;;;;;;4.47;1.88;;;18.00;99.90;;;17.12;100.00;101798.28;4990106;28;20056;-76
2022/07/09 07:00:13;;;;;;;7.32;2.40;;;18.00;99.90;;;17.22;99.81;101798.63;4982767;28;20030;-76
2022/07/09 07:02:41;;;;;;;7.65;2.42;;;18.00;99.90;;;17.39;99.93;101800.31;4999139;28;20026;-76
2022/07/09 07:05:08;;;;;;;9.30;2.50;;;18.20;99.90;;;17.59;99.93;101801.81;5009051;28;20028;-76
2022/07/09 07:07:33;;;;;;;5.90;2.03;;;18.30;99.90;;;17.76;98.30;101800.81;4998818;28;20096;-74
2022/07/09 07:09:59;;;;;;;7.95;2.53;;;18.50;99.90;;;17.88;97.85;101804.56;4991255;28;20034;-73
2022/07/09 07:12:25;;;;;;;;;;;18.50;99.90;;;17.77;96.54;101803.38;4988880;28;20045;-74
2022/07/09 07:14:51;;;;;;;7.40;2.40;;;18.60;99.90;;;17.93;97.11;101797.19;4997229;28;19911;-74
2022/07/09 07:17:16;;;;;;;;;;;18.60;99.90;;;18.21;95.84;101789.19;5003839;28;20037;-75
2022/07/09 07:19:43;;;;;;;9.45;3.72;;;19.00;99.90;;;19.24;91.42;101796.00;4999079;28;19922;-75
2022/07/09 07:22:11;;;;;;;7.30;2.25;;;19.70;99.90;;;19.86;86.17;101797.19;4988396;28;20448;-77
2022/07/09 07:24:36;;;;;;;6.10;1.90;;;20.50;99.90;;;21.05;80.36;101800.34;4970913;28;20405;-76
2022/07/09 07:27:02;;;;;;;7.60;2.38;;;21.10;99.90;;;21.06;78.95;101788.69;4989718;28;20049;-76
2022/07/09 07:29:28;;;;;;;7.20;1.73;;;21.30;99.90;;;20.75;79.16;101785.56;5007765;28;20037;-75
2022/07/09 07:31:56;;;;;;;7.93;2.42;;;21.20;99.90;;;20.34;80.06;101784.03;5003044;28;20022;-75
2022/07/09 07:34:23;;;;;;;11.00;2.60;;;21.00;99.90;;;20.00;81.44;101782.88;5000784;28;20049;-75
2022/07/09 07:36:50;;;;;;;11.50;2.58;;;20.70;99.90;;;19.73;82.02;101791.84;5009298;28;20108;-74
2022/07/09 07:39:16;;;;;;;9.55;2.40;;;20.60;99.90;;;19.80;82.50;101777.09;4986798;28;20044;-75
2022/07/09 07:41:41;;;;;;;6.82;2.17;;;20.50;99.90;;;19.78;82.45;101783.50;4987083;28;20045;-75
2022/07/09 07:44:07;;;;;;;;;;;20.50;99.90;;;20.90;80.35;101784.44;5004645;28;20058;-75
2022/07/09 07:46:33;;;;;;;15.30;2.38;;;21.20;99.90;;;21.84;76.16;101790.81;4994088;28;19966;-75
2022/07/09 07:48:58;;;;;;;;;;;21.40;99.90;;;21.66;73.61;101792.22;4993773;28;25023;-75
2022/07/09 07:51:24;;;;;;;9.75;2.63;;;22.00;99.90;;;21.96;73.29;101789.00;5005819;28;19914;-75
2022/07/09 07:53:50;;;;;;;;;;;22.00;99.90;;;21.86;72.25;101782.66;5004269;28;20125;-75
2022/07/09 07:56:16;;;;;;;5.43;2.33;;;22.10;99.90;;;21.60;73.72;101782.00;4977624;28;19988;-75
2022/07/09 07:58:42;;;;;;;10.30;2.28;;;22.00;99.90;;;21.46;74.22;101775.00;4980794;28;20033;-74
2022/07/09 08:01:08;;;;;;;7.70;2.30;;;21.90;99.90;;;21.33;74.05;101777.72;4979595;28;20844;-75
2022/07/09 08:03:33;;;;;;;11.52;2.70;;;21.80;99.90;;;21.16;74.90;101772.78;4995434;28;20029;-79
2022/07/09 08:06:00;;;;;;;5.63;2.42;;;21.70;99.90;;;21.10;75.09;101779.44;4996542;28;20559;-75
2022/07/09 08:08:26;;;;;;;5.03;1.77;;;21.60;99.90;;;20.99;74.89;101768.66;5001878;28;20025;-75
2022/07/09 08:10:53;;;;;;;8.02;2.30;;;22.00;99.90;;;22.62;72.36;101777.56;5002385;28;20080;-76
2022/07/09 08:13:18;;;;;;;6.72;1.83;;;22.80;99.90;;;23.35;69.01;101792.16;5002707;28;20025;-76
2022/07/09 08:15:44;;;;;;;9.95;2.20;;;23.30;99.90;;;23.13;67.98;101783.22;5017161;28;20088;-76
2022/07/09 08:18:12;;;;;;;8.38;2.13;;;23.40;99.90;;;22.89;68.13;101777.13;4989139;28;20066;-76
2022/07/09 08:20:40;;;;;;;6.97;2.15;;;23.20;99.90;;;22.40;69.27;101765.88;5004662;28;20033;-76
2022/07/09 08:23:07;;;;;;;6.45;2.42;;;22.80;99.90;;;21.81;70.83;101769.59;4985278;28;20033;-76
2022/07/09 08:25:33;;;;;;;7.50;2.20;;;22.50;99.90;;;21.77;71.84;101767.28;4991896;28;20022;-76
2022/07/09 08:28:02;;;;;;;7.75;2.42;;;22.50;99.90;;;22.36;70.02;101768.94;4994757;28;20488;-76
2022/07/09 08:30:36;;;;;;;6.45;1.98;;;22.60;99.90;;;22.26;69.69;101769.66;5002424;28;20041;-76
2022/07/09 08:33:02;;;;;;;6.10;2.10;;;22.90;99.90;;;23.20;68.50;101770.13;5002161;28;20064;-76
2022/07/09 08:35:28;;;;;;;9.90;2.10;;;23.20;99.90;;;23.50;67.27;101768.50;4999257;28;20481;-76
2022/07/09 08:37:54;;;;;;;6.72;1.92;;;23.70;99.90;;;23.87;64.87;101765.38;4994927;28;20080;-74
2022/07/09 08:40:21;;;;;;;9.75;2.00;;;24.00;99.90;;;24.04;63.56;101763.88;5000625;28;20025;-73
2022/07/09 08:42:51;;;;;;;9.65;1.83;;;24.30;99.90;;;24.10;63.14;101752.59;5032988;28;20044;-74
2022/07/09 08:45:21;;;;;;;5.90;1.63;;;24.40;99.90;;;24.09;63.86;101751.75;4997625;28;20494;-74
2022/07/09 08:47:47;;;;;;;6.93;2.13;;;24.10;99.90;;;23.29;65.25;101761.28;4993439;28;20052;-74
2022/07/09 08:50:13;;;;;;;9.30;2.08;;;24.00;99.90;;;23.29;64.83;101755.06;4993651;28;20032;-73
2022/07/09 08:52:43;;;;;;;4.53;1.67;;;23.90;99.90;;;23.33;65.86;101748.44;4990541;28;20116;-74
2022/07/09 08:55:13;;;;;;;6.68;1.88;;;23.80;99.90;;;23.27;66.00;101759.69;4992825;28;20026;-73
2022/07/09 08:57:39;;;;;;;6.72;1.55;;;23.70;99.90;;;23.08;65.65;101738.91;4979431;28;20111;-74
2022/07/09 09:00:06;;;;;;;13.65;1.88;;;23.70;99.90;;;23.15;65.46;101750.81;4999804;28;20506;-74
2022/07/09 09:02:37;;;;;;;12.80;2.08;;;23.50;99.90;;;22.79;66.11;101752.88;4987039;28;20034;-75
2022/07/09 09:05:14;;;;;;;6.00;1.75;;;23.20;99.90;;;22.26;68.87;101752.72;5001436;28;20029;-75
2022/07/09 09:07:40;;;;;;;6.38;1.60;;;22.80;99.90;;;21.63;70.19;101750.44;5000989;28;20648;-75
2022/07/09 09:10:22;;;;;;;3.97;1.75;;;22.40;99.90;;;21.13;72.76;101751.59;4984352;28;20060;-74
2022/07/09 09:12:48;;;;;;;5.30;1.52;;;22.00;99.90;;;21.12;73.83;101744.50;5014696;28;20041;-75
2022/07/09 09:15:20;;;;;;;9.90;2.20;;;22.00;99.90;;;21.62;75.24;101747.88;5007072;28;20189;-75
2022/07/09 09:17:46;;;;;;;5.55;1.60;;;22.30;99.90;;;22.00;72.85;101742.19;4994470;28;20690;-74
2022/07/09 09:20:24;;;;;;;7.53;1.90;;;22.60;99.90;;;22.34;72.47;101741.38;4990583;28;20118;-74
2022/07/09 09:23:04;;;;;;;2.17;1.00;;;22.90;99.90;;;22.36;68.60;101739.44;4977204;28;20367;-75
2022/07/09 09:25:34;;;;;;;5.45;1.45;;;23.00;99.90;;;22.36;68.00;101748.31;4991475;28;20536;-74
2022/07/09 09:28:00;;;;;;;4.38;1.60;;;22.90;99.90;;;21.88;67.39;101737.81;4983884;28;20087;-74
2022/07/09 09:30:30;;;;;;;8.57;1.60;;;22.50;99.90;;;21.32;71.21;101746.56;4991373;28;20109;-74
2022/07/09 09:33:06;;;;;;;4.30;1.60;;;22.40;99.90;;;21.65;71.27;101753.00;4985394;28;20022;-74
2022/07/09 09:35:41;;;;;;;2.58;1.27;;;22.40;99.90;;;21.84;71.40;101750.59;5003391;28;20121;-74
2022/07/09 09:38:07;;;;;;;5.90;1.73;;;22.60;99.90;;;22.11;71.00;101750.25;4988635;28;20038;-74
2022/07/09 09:40:35;;;;;;;17.02;1.60;;;22.80;99.90;;;22.62;68.66;101740.84;5000013;28;20540;-74
2022/07/09 09:43:03;;;;;;;4.55;1.20;;;23.10;99.90;;;22.92;64.84;101755.41;4990484;28;20379;-75
2022/07/09 09:45:29;;;;;;;4.28;1.33;;;23.30;99.90;;;22.76;64.64;101733.47;5001105;28;20037;-75
2022/07/09 09:47:58;;;;;;;4.28;1.08;;;23.30;99.90;;;22.60;64.20;101732.06;4993842;28;20034;-75
2022/07/09 09:50:27;;;;;;;4.82;1.08;;;23.10;99.90;;;22.07;63.87;101737.19;4988814;28;20026;-76
2022/07/09 09:52:56;;;;;;;4.43;1.13;;;22.70;99.90;;;21.49;65.14;101722.03;4964060;28;20033;-76
2022/07/09 09:55:28;;;;;;;3.80;1.00;;;22.50;99.90;;;21.31;66.51;101729.59;5023813;28;20129;-75
2022/07/09 09:57:55;;;;;;;7.47;1.50;;;22.30;99.90;;;21.25;66.26;101731.91;5006371;28;20076;-75
2022/07/09 10:00:25;;;;;;;3.72;1.08;;;22.40;99.90;;;21.63;65.90;101736.19;4985457;28;20027;-76
2022/07/09 10:02:53;;;;;;;2.85;0.80;;;22.50;99.90;;;22.01;61.54;101726.94;5007495;28;20405;-75
2022/07/09 10:05:19;;;;;;;5.35;0.80;;;22.80;99.90;;;22.37;61.04;101717.81;4999292;28;20041;-75
2022/07/09 10:07:48;;;;;;;1.77;0.63;;;23.10;99.90;;;22.70;58.11;101729.50;4998684;28;20023;-75